sensor_id;sensor_type;location;lat;lon;timestamp;P1;durP1;ratioP1;P2;durP2;ratioP2
28003;SDS011;15330;51.234;6.754;2023-06-10T00:00:43;11.18;;;8.75;;
28003;SDS011;15330;51.234;6.754;2023-06-10T00:03:09;13.57;;;8.95;;
28003;SDS011;15330;51.234;6.754;2023-06-10T00:05:35;9.70;;;8.65;;
28003;SDS011;15330;51.234;6.754;2023-06-10T00:08:03;12.90;;;9.02;;
28003;SDS011;15330;51.234;6.754;2023-06-10T00:10:35;10.98;;;8.32;;
28003;SDS011;15330;51.234;6.754;2023-06-10T00:13:01;16.85;;;9.27;;
28003;SDS011;15330;51.234;6.754;2023-06-10T00:15:32;10.25;;;8.85;;
28003;SDS011;15330;51.234;6.754;2023-06-10T00:17:58;10.85;;;9.52;;
28003;SDS011;15330;51.234;6.754;2023-06-10T00:20:23;12.82;;;8.48;;
28003;SDS011;15330;51.234;6.754;2023-06-10T00:22:50;10.20;;;8.40;;
28003;SDS011;15330;51.234;6.754;2023-06-10T00:25:16;9.68;;;8.50;;
28003;SDS011;15330;51.234;6.754;2023-06-10T00:27:42;10.13;;;9.13;;
28003;SDS011;15330;51.234;6.754;2023-06-10T00:30:07;11.55;;;9.52;;
28003;SDS011;15330;51.234;6.754;2023-06-10T00:32:33;11.00;;;9.75;;
28003;SDS011;15330;51.234;6.754;2023-06-10T00:35:02;12.18;;;8.73;;
28003;SDS011;15330;51.234;6.754;2023-06-10T00:37:28;10.73;;;8.70;;
28003;SDS011;15330;51.234;6.754;2023-06-10T00:39:54;10.20;;;9.07;;
28003;SDS011;15330;51.234;6.754;2023-06-10T00:42:19;10.32;;;8.90;;
28003;SDS011;15330;51.234;6.754;2023-06-10T00:44:47;10.30;;;9.30;;
28003;SDS011;15330;51.234;6.754;2023-06-10T00:47:13;12.25;;;9.60;;
28003;SDS011;15330;51.234;6.754;2023-06-10T00:49:39;9.98;;;8.98;;
28003;SDS011;15330;51.234;6.754;2023-06-10T00:52:04;10.77;;;9.30;;
28003;SDS011;15330;51.234;6.754;2023-06-10T00:54:31;10.35;;;9.35;;
28003;SDS011;15330;51.234;6.754;2023-06-10T00:57:00;10.20;;;9.05;;
28003;SDS011;15330;51.234;6.754;2023-06-10T00:59:28;12.60;;;9.00;;
28003;SDS011;15330;51.234;6.754;2023-06-10T01:01:54;14.02;;;9.52;;
28003;SDS011;15330;51.234;6.754;2023-06-10T01:04:21;13.18;;;9.27;;
28003;SDS011;15330;51.234;6.754;2023-06-10T01:14:44;12.57;;;9.23;;
28003;SDS011;15330;51.234;6.754;2023-06-10T01:17:11;12.25;;;9.05;;
28003;SDS011;15330;51.234;6.754;2023-06-10T01:19:36;12.27;;;9.63;;
28003;SDS011;15330;51.234;6.754;2023-06-10T01:22:02;11.07;;;9.75;;
28003;SDS011;15330;51.234;6.754;2023-06-10T01:24:28;12.00;;;9.38;;
28003;SDS011;15330;51.234;6.754;2023-06-10T01:26:57;10.38;;;8.80;;
28003;SDS011;15330;51.234;6.754;2023-06-10T01:29:28;10.88;;;9.10;;
28003;SDS011;15330;51.234;6.754;2023-06-10T01:32:06;10.57;;;9.48;;
28003;SDS011;15330;51.234;6.754;2023-06-10T01:34:37;13.27;;;9.88;;
28003;SDS011;15330;51.234;6.754;2023-06-10T01:37:05;11.35;;;9.43;;
28003;SDS011;15330;51.234;6.754;2023-06-10T01:39:30;12.50;;;9.10;;
28003;SDS011;15330;51.234;6.754;2023-06-10T01:41:57;9.90;;;8.90;;
28003;SDS011;15330;51.234;6.754;2023-06-10T01:44:23;11.20;;;9.20;;
28003;SDS011;15330;51.234;6.754;2023-06-10T01:46:49;14.55;;;9.40;;
28003;SDS011;15330;51.234;6.754;2023-06-10T01:49:15;11.88;;;9.73;;
28003;SDS011;15330;51.234;6.754;2023-06-10T01:51:41;23.13;;;9.57;;
28003;SDS011;15330;51.234;6.754;2023-06-10T01:54:06;11.82;;;9.73;;
28003;SDS011;15330;51.234;6.754;2023-06-10T01:56:32;12.07;;;9.77;;
28003;SDS011;15330;51.234;6.754;2023-06-10T01:58:58;13.05;;;9.70;;
28003;SDS011;15330;51.234;6.754;2023-06-10T02:01:26;12.23;;;9.52;;
28003;SDS011;15330;51.234;6.754;2023-06-10T02:03:52;11.02;;;9.52;;
28003;SDS011;15330;51.234;6.754;2023-06-10T02:06:18;10.63;;;9.50;;
28003;SDS011;15330;51.234;6.754;2023-06-10T02:08:43;10.10;;;9.10;;
28003;SDS011;15330;51.234;6.754;2023-06-10T02:11:09;11.63;;;10.43;;
28003;SDS011;15330;51.234;6.754;2023-06-10T02:13:34;10.50;;;9.50;;
28003;SDS011;15330;51.234;6.754;2023-06-10T02:16:00;11.88;;;9.85;;
28003;SDS011;15330;51.234;6.754;2023-06-10T02:18:26;13.13;;;10.38;;
28003;SDS011;15330;51.234;6.754;2023-06-10T02:20:53;11.80;;;10.07;;
28003;SDS011;15330;51.234;6.754;2023-06-10T02:23:18;18.35;;;10.73;;
28003;SDS011;15330;51.234;6.754;2023-06-10T02:25:44;11.15;;;9.95;;
28003;SDS011;15330;51.234;6.754;2023-06-10T02:28:09;10.65;;;9.60;;
28003;SDS011;15330;51.234;6.754;2023-06-10T02:30:35;12.38;;;10.20;;
28003;SDS011;15330;51.234;6.754;2023-06-10T02:33:00;11.70;;;10.50;;
28003;SDS011;15330;51.234;6.754;2023-06-10T02:35:26;11.73;;;10.23;;
28003;SDS011;15330;51.234;6.754;2023-06-10T02:37:52;11.77;;;9.90;;
28003;SDS011;15330;51.234;6.754;2023-06-10T02:40:17;11.43;;;10.32;;
28003;SDS011;15330;51.234;6.754;2023-06-10T02:42:42;11.77;;;9.50;;
28003;SDS011;15330;51.234;6.754;2023-06-10T02:45:08;11.57;;;9.85;;
28003;SDS011;15330;51.234;6.754;2023-06-10T02:47:33;10.98;;;9.75;;
28003;SDS011;15330;51.234;6.754;2023-06-10T02:49:59;13.55;;;10.18;;
28003;SDS011;15330;51.234;6.754;2023-06-10T02:52:24;11.65;;;9.98;;
28003;SDS011;15330;51.234;6.754;2023-06-10T02:54:50;13.35;;;10.18;;
28003;SDS011;15330;51.234;6.754;2023-06-10T02:57:15;10.88;;;9.77;;
28003;SDS011;15330;51.234;6.754;2023-06-10T02:59:40;12.20;;;10.27;;
28003;SDS011;15330;51.234;6.754;2023-06-10T03:02:06;11.68;;;10.23;;
28003;SDS011;15330;51.234;6.754;2023-06-10T03:04:31;12.30;;;10.40;;
28003;SDS011;15330;51.234;6.754;2023-06-10T03:06:56;12.88;;;10.43;;
28003;SDS011;15330;51.234;6.754;2023-06-10T03:09:22;14.75;;;9.90;;
28003;SDS011;15330;51.234;6.754;2023-06-10T03:11:47;12.77;;;10.68;;
28003;SDS011;15330;51.234;6.754;2023-06-10T03:14:13;11.77;;;10.55;;
28003;SDS011;15330;51.234;6.754;2023-06-10T03:16:38;10.88;;;9.70;;
28003;SDS011;15330;51.234;6.754;2023-06-10T03:19:05;12.98;;;10.40;;
28003;SDS011;15330;51.234;6.754;2023-06-10T03:21:36;14.23;;;10.30;;
28003;SDS011;15330;51.234;6.754;2023-06-10T03:24:02;11.60;;;10.10;;
28003;SDS011;15330;51.234;6.754;2023-06-10T03:26:28;13.60;;;10.65;;
28003;SDS011;15330;51.234;6.754;2023-06-10T03:28:53;10.73;;;9.63;;
28003;SDS011;15330;51.234;6.754;2023-06-10T03:31:19;13.32;;;10.75;;
28003;SDS011;15330;51.234;6.754;2023-06-10T03:33:44;13.57;;;10.00;;
28003;SDS011;15330;51.234;6.754;2023-06-10T03:36:09;13.38;;;9.38;;
28003;SDS011;15330;51.234;6.754;2023-06-10T03:38:35;11.57;;;9.55;;
28003;SDS011;15330;51.234;6.754;2023-06-10T03:41:01;10.88;;;9.77;;
28003;SDS011;15330;51.234;6.754;2023-06-10T03:43:26;14.02;;;10.07;;
28003;SDS011;15330;51.234;6.754;2023-06-10T03:45:52;13.65;;;9.63;;
28003;SDS011;15330;51.234;6.754;2023-06-10T03:48:18;16.30;;;10.18;;
28003;SDS011;15330;51.234;6.754;2023-06-10T03:50:43;11.73;;;10.13;;
28003;SDS011;15330;51.234;6.754;2023-06-10T03:53:09;14.15;;;10.63;;
28003;SDS011;15330;51.234;6.754;2023-06-10T03:55:34;11.85;;;10.65;;
28003;SDS011;15330;51.234;6.754;2023-06-10T03:58:01;10.80;;;9.70;;
28003;SDS011;15330;51.234;6.754;2023-06-10T04:00:27;13.05;;;10.15;;
28003;SDS011;15330;51.234;6.754;2023-06-10T04:02:52;11.50;;;9.95;;
28003;SDS011;15330;51.234;6.754;2023-06-10T04:05:18;12.93;;;9.98;;
28003;SDS011;15330;51.234;6.754;2023-06-10T04:07:46;10.93;;;9.93;;
28003;SDS011;15330;51.234;6.754;2023-06-10T04:10:13;13.13;;;10.40;;
28003;SDS011;15330;51.234;6.754;2023-06-10T04:12:39;11.20;;;10.00;;
28003;SDS011;15330;51.234;6.754;2023-06-10T04:15:05;11.73;;;10.05;;
28003;SDS011;15330;51.234;6.754;2023-06-10T04:17:30;11.50;;;9.80;;
28003;SDS011;15330;51.234;6.754;2023-06-10T04:19:56;11.70;;;10.45;;
28003;SDS011;15330;51.234;6.754;2023-06-10T04:22:23;12.30;;;9.90;;
28003;SDS011;15330;51.234;6.754;2023-06-10T04:24:48;11.32;;;9.77;;
28003;SDS011;15330;51.234;6.754;2023-06-10T04:27:14;11.23;;;9.57;;
28003;SDS011;15330;51.234;6.754;2023-06-10T04:29:40;11.68;;;10.13;;
28003;SDS011;15330;51.234;6.754;2023-06-10T04:32:05;10.60;;;9.50;;
28003;SDS011;15330;51.234;6.754;2023-06-10T04:34:32;11.52;;;10.38;;
28003;SDS011;15330;51.234;6.754;2023-06-10T04:36:58;13.57;;;10.98;;
28003;SDS011;15330;51.234;6.754;2023-06-10T04:39:24;16.55;;;9.75;;
28003;SDS011;15330;51.234;6.754;2023-06-10T04:41:49;11.48;;;10.05;;
28003;SDS011;15330;51.234;6.754;2023-06-10T04:44:14;11.93;;;9.75;;
28003;SDS011;15330;51.234;6.754;2023-06-10T04:46:40;13.65;;;9.98;;
28003;SDS011;15330;51.234;6.754;2023-06-10T04:49:05;12.55;;;11.15;;
28003;SDS011;15330;51.234;6.754;2023-06-10T04:51:31;12.05;;;10.60;;
28003;SDS011;15330;51.234;6.754;2023-06-10T04:53:59;14.82;;;10.45;;
28003;SDS011;15330;51.234;6.754;2023-06-10T04:56:28;11.88;;;10.68;;
28003;SDS011;15330;51.234;6.754;2023-06-10T04:58:55;13.25;;;9.95;;
28003;SDS011;15330;51.234;6.754;2023-06-10T05:01:21;12.38;;;10.70;;
28003;SDS011;15330;51.234;6.754;2023-06-10T05:03:46;14.35;;;10.73;;
28003;SDS011;15330;51.234;6.754;2023-06-10T05:06:12;15.63;;;11.50;;
28003;SDS011;15330;51.234;6.754;2023-06-10T05:08:37;17.35;;;11.95;;
28003;SDS011;15330;51.234;6.754;2023-06-10T05:11:02;13.10;;;11.60;;
28003;SDS011;15330;51.234;6.754;2023-06-10T05:13:28;12.95;;;11.43;;
28003;SDS011;15330;51.234;6.754;2023-06-10T05:15:53;15.15;;;11.10;;
28003;SDS011;15330;51.234;6.754;2023-06-10T05:18:19;15.05;;;11.50;;
28003;SDS011;15330;51.234;6.754;2023-06-10T05:20:44;12.57;;;11.32;;
28003;SDS011;15330;51.234;6.754;2023-06-10T05:23:10;15.10;;;11.45;;
28003;SDS011;15330;51.234;6.754;2023-06-10T05:25:35;16.58;;;11.10;;
28003;SDS011;15330;51.234;6.754;2023-06-10T05:28:01;13.52;;;10.63;;
28003;SDS011;15330;51.234;6.754;2023-06-10T05:30:26;13.52;;;10.95;;
28003;SDS011;15330;51.234;6.754;2023-06-10T05:32:52;12.98;;;10.32;;
28003;SDS011;15330;51.234;6.754;2023-06-10T05:35:18;12.65;;;10.25;;
28003;SDS011;15330;51.234;6.754;2023-06-10T05:37:44;12.02;;;10.40;;
28003;SDS011;15330;51.234;6.754;2023-06-10T05:40:10;12.90;;;11.05;;
28003;SDS011;15330;51.234;6.754;2023-06-10T05:42:36;11.93;;;10.13;;
28003;SDS011;15330;51.234;6.754;2023-06-10T05:45:01;14.35;;;10.20;;
28003;SDS011;15330;51.234;6.754;2023-06-10T05:47:28;16.10;;;10.15;;
28003;SDS011;15330;51.234;6.754;2023-06-10T05:49:53;14.70;;;10.60;;
28003;SDS011;15330;51.234;6.754;2023-06-10T05:52:18;11.82;;;10.50;;
28003;SDS011;15330;51.234;6.754;2023-06-10T05:54:44;15.45;;;10.57;;
28003;SDS011;15330;51.234;6.754;2023-06-10T05:57:09;15.13;;;10.30;;
28003;SDS011;15330;51.234;6.754;2023-06-10T05:59:35;11.60;;;10.32;;
28003;SDS011;15330;51.234;6.754;2023-06-10T06:02:01;16.50;;;10.65;;
28003;SDS011;15330;51.234;6.754;2023-06-10T06:04:26;13.82;;;9.57;;
28003;SDS011;15330;51.234;6.754;2023-06-10T06:06:52;10.68;;;9.55;;
28003;SDS011;15330;51.234;6.754;2023-06-10T06:09:17;11.52;;;9.77;;
28003;SDS011;15330;51.234;6.754;2023-06-10T06:11:42;12.82;;;9.93;;
28003;SDS011;15330;51.234;6.754;2023-06-10T06:14:08;13.23;;;9.77;;
28003;SDS011;15330;51.234;6.754;2023-06-10T06:16:33;12.30;;;9.20;;
28003;SDS011;15330;51.234;6.754;2023-06-10T06:18:59;13.80;;;9.38;;
28003;SDS011;15330;51.234;6.754;2023-06-10T06:21:24;12.98;;;9.88;;
28003;SDS011;15330;51.234;6.754;2023-06-10T06:23:49;11.35;;;9.65;;
28003;SDS011;15330;51.234;6.754;2023-06-10T06:26:15;10.32;;;9.25;;
28003;SDS011;15330;51.234;6.754;2023-06-10T06:28:40;11.80;;;9.38;;
28003;SDS011;15330;51.234;6.754;2023-06-10T06:31:06;14.13;;;9.07;;
28003;SDS011;15330;51.234;6.754;2023-06-10T06:33:32;10.88;;;9.43;;
28003;SDS011;15330;51.234;6.754;2023-06-10T06:35:57;12.48;;;8.82;;
28003;SDS011;15330;51.234;6.754;2023-06-10T06:38:25;10.18;;;9.13;;
28003;SDS011;15330;51.234;6.754;2023-06-10T06:40:50;13.35;;;9.82;;
28003;SDS011;15330;51.234;6.754;2023-06-10T06:43:15;14.90;;;9.20;;
28003;SDS011;15330;51.234;6.754;2023-06-10T06:45:42;13.32;;;9.52;;
28003;SDS011;15330;51.234;6.754;2023-06-10T06:48:07;11.13;;;9.93;;
28003;SDS011;15330;51.234;6.754;2023-06-10T06:50:33;13.90;;;9.57;;
28003;SDS011;15330;51.234;6.754;2023-06-10T06:52:58;14.05;;;9.30;;
28003;SDS011;15330;51.234;6.754;2023-06-10T06:55:24;13.05;;;9.25;;
28003;SDS011;15330;51.234;6.754;2023-06-10T06:57:52;10.85;;;8.60;;
28003;SDS011;15330;51.234;6.754;2023-06-10T07:00:17;11.40;;;9.52;;
28003;SDS011;15330;51.234;6.754;2023-06-10T07:02:43;17.85;;;8.90;;
28003;SDS011;15330;51.234;6.754;2023-06-10T07:05:08;13.20;;;8.73;;
28003;SDS011;15330;51.234;6.754;2023-06-10T07:07:34;11.60;;;8.45;;
28003;SDS011;15330;51.234;6.754;2023-06-10T07:09:59;12.38;;;9.55;;
28003;SDS011;15330;51.234;6.754;2023-06-10T07:12:25;17.75;;;10.65;;
28003;SDS011;15330;51.234;6.754;2023-06-10T07:14:50;11.13;;;9.07;;
28003;SDS011;15330;51.234;6.754;2023-06-10T07:17:16;11.80;;;8.95;;
28003;SDS011;15330;51.234;6.754;2023-06-10T07:19:43;13.13;;;9.90;;
28003;SDS011;15330;51.234;6.754;2023-06-10T07:22:08;13.50;;;9.95;;
28003;SDS011;15330;51.234;6.754;2023-06-10T07:24:34;11.40;;;9.00;;
28003;SDS011;15330;51.234;6.754;2023-06-10T07:26:59;12.18;;;8.27;;
28003;SDS011;15330;51.234;6.754;2023-06-10T07:29:25;13.65;;;8.73;;
28003;SDS011;15330;51.234;6.754;2023-06-10T07:31:50;10.85;;;8.70;;
28003;SDS011;15330;51.234;6.754;2023-06-10T07:34:15;12.27;;;8.50;;
28003;SDS011;15330;51.234;6.754;2023-06-10T07:36:41;12.73;;;8.98;;
28003;SDS011;15330;51.234;6.754;2023-06-10T07:39:06;10.23;;;8.45;;
28003;SDS011;15330;51.234;6.754;2023-06-10T07:41:32;9.52;;;8.35;;
28003;SDS011;15330;51.234;6.754;2023-06-10T07:43:58;12.07;;;8.50;;
28003;SDS011;15330;51.234;6.754;2023-06-10T07:46:23;14.68;;;8.73;;
28003;SDS011;15330;51.234;6.754;2023-06-10T07:48:49;9.23;;;7.97;;
28003;SDS011;15330;51.234;6.754;2023-06-10T07:51:15;11.00;;;8.18;;
28003;SDS011;15330;51.234;6.754;2023-06-10T07:53:41;10.38;;;8.45;;
28003;SDS011;15330;51.234;6.754;2023-06-10T07:56:07;10.57;;;8.13;;
28003;SDS011;15330;51.234;6.754;2023-06-10T07:58:32;10.10;;;8.25;;
28003;SDS011;15330;51.234;6.754;2023-06-10T08:00:57;10.00;;;7.82;;
28003;SDS011;15330;51.234;6.754;2023-06-10T08:03:23;12.98;;;8.65;;
28003;SDS011;15330;51.234;6.754;2023-06-10T08:05:48;14.23;;;8.13;;
28003;SDS011;15330;51.234;6.754;2023-06-10T08:08:14;11.48;;;7.78;;
28003;SDS011;15330;51.234;6.754;2023-06-10T08:10:39;9.40;;;8.10;;
28003;SDS011;15330;51.234;6.754;2023-06-10T08:13:04;8.40;;;7.60;;
28003;SDS011;15330;51.234;6.754;2023-06-10T08:15:30;9.63;;;8.02;;
28003;SDS011;15330;51.234;6.754;2023-06-10T08:17:55;13.45;;;8.25;;
28003;SDS011;15330;51.234;6.754;2023-06-10T08:20:21;9.32;;;7.88;;
28003;SDS011;15330;51.234;6.754;2023-06-10T08:22:47;9.18;;;8.20;;
28003;SDS011;15330;51.234;6.754;2023-06-10T08:25:12;10.57;;;8.23;;
28003;SDS011;15330;51.234;6.754;2023-06-10T08:27:37;12.80;;;8.10;;
28003;SDS011;15330;51.234;6.754;2023-06-10T08:30:03;10.95;;;7.75;;
28003;SDS011;15330;51.234;6.754;2023-06-10T08:32:29;10.75;;;8.43;;
28003;SDS011;15330;51.234;6.754;2023-06-10T08:34:54;11.90;;;8.05;;
28003;SDS011;15330;51.234;6.754;2023-06-10T08:37:20;11.65;;;8.38;;
28003;SDS011;15330;51.234;6.754;2023-06-10T08:39:45;8.73;;;7.82;;
28003;SDS011;15330;51.234;6.754;2023-06-10T08:42:11;9.05;;;8.23;;
28003;SDS011;15330;51.234;6.754;2023-06-10T08:45:00;12.88;;;8.65;;
28003;SDS011;15330;51.234;6.754;2023-06-10T08:47:28;10.80;;;8.27;;
28003;SDS011;15330;51.234;6.754;2023-06-10T08:50:01;9.13;;;8.20;;
28003;SDS011;15330;51.234;6.754;2023-06-10T08:52:29;10.25;;;7.97;;
28003;SDS011;15330;51.234;6.754;2023-06-10T08:55:00;10.98;;;8.48;;
28003;SDS011;15330;51.234;6.754;2023-06-10T08:57:35;10.32;;;7.93;;
28003;SDS011;15330;51.234;6.754;2023-06-10T09:00:02;11.32;;;8.05;;
28003;SDS011;15330;51.234;6.754;2023-06-10T09:02:29;10.98;;;8.25;;
28003;SDS011;15330;51.234;6.754;2023-06-10T09:04:56;12.90;;;8.43;;
28003;SDS011;15330;51.234;6.754;2023-06-10T09:07:22;9.77;;;7.60;;
28003;SDS011;15330;51.234;6.754;2023-06-10T09:09:48;11.43;;;7.95;;
28003;SDS011;15330;51.234;6.754;2023-06-10T09:12:14;16.35;;;8.73;;
28003;SDS011;15330;51.234;6.754;2023-06-10T09:14:40;9.70;;;8.45;;
28003;SDS011;15330;51.234;6.754;2023-06-10T09:17:06;10.48;;;8.10;;
28003;SDS011;15330;51.234;6.754;2023-06-10T09:19:31;11.27;;;8.10;;
28003;SDS011;15330;51.234;6.754;2023-06-10T09:21:57;10.73;;;7.60;;
28003;SDS011;15330;51.234;6.754;2023-06-10T09:24:23;13.55;;;8.40;;
28003;SDS011;15330;51.234;6.754;2023-06-10T09:26:49;14.43;;;8.43;;
28003;SDS011;15330;51.234;6.754;2023-06-10T09:29:15;9.30;;;8.02;;
28003;SDS011;15330;51.234;6.754;2023-06-10T09:31:41;10.13;;;8.23;;
28003;SDS011;15330;51.234;6.754;2023-06-10T09:34:12;12.18;;;7.90;;
28003;SDS011;15330;51.234;6.754;2023-06-10T09:36:39;10.40;;;7.82;;
28003;SDS011;15330;51.234;6.754;2023-06-10T09:39:13;11.90;;;7.70;;
28003;SDS011;15330;51.234;6.754;2023-06-10T09:41:41;11.43;;;7.72;;
28003;SDS011;15330;51.234;6.754;2023-06-10T09:44:16;10.55;;;7.90;;
28003;SDS011;15330;51.234;6.754;2023-06-10T09:46:46;10.52;;;8.35;;
28003;SDS011;15330;51.234;6.754;2023-06-10T09:49:14;12.30;;;8.40;;
28003;SDS011;15330;51.234;6.754;2023-06-10T09:51:48;14.38;;;8.57;;
28003;SDS011;15330;51.234;6.754;2023-06-10T09:54:15;12.52;;;8.27;;
28003;SDS011;15330;51.234;6.754;2023-06-10T09:56:41;9.63;;;7.53;;
28003;SDS011;15330;51.234;6.754;2023-06-10T09:59:07;13.82;;;8.15;;
28003;SDS011;15330;51.234;6.754;2023-06-10T10:01:33;10.13;;;8.77;;
28003;SDS011;15330;51.234;6.754;2023-06-10T10:03:59;9.25;;;7.60;;
28003;SDS011;15330;51.234;6.754;2023-06-10T10:06:26;13.60;;;8.75;;
28003;SDS011;15330;51.234;6.754;2023-06-10T10:08:52;8.88;;;7.97;;
28003;SDS011;15330;51.234;6.754;2023-06-10T10:11:18;10.27;;;7.70;;
28003;SDS011;15330;51.234;6.754;2023-06-10T10:13:47;10.55;;;8.68;;
28003;SDS011;15330;51.234;6.754;2023-06-10T10:16:14;17.17;;;7.70;;
28003;SDS011;15330;51.234;6.754;2023-06-10T10:18:52;8.75;;;7.30;;
28003;SDS011;15330;51.234;6.754;2023-06-10T10:21:23;8.87;;;7.80;;
28003;SDS011;15330;51.234;6.754;2023-06-10T10:26:40;7.82;;;6.95;;
28003;SDS011;15330;51.234;6.754;2023-06-10T10:29:10;9.13;;;8.15;;
28003;SDS011;15330;51.234;6.754;2023-06-10T10:31:39;12.15;;;8.10;;
28003;SDS011;15330;51.234;6.754;2023-06-10T10:34:12;8.57;;;7.68;;
28003;SDS011;15330;51.234;6.754;2023-06-10T10:36:40;10.30;;;7.32;;
28003;SDS011;15330;51.234;6.754;2023-06-10T10:39:06;9.93;;;7.43;;
28003;SDS011;15330;51.234;6.754;2023-06-10T10:41:32;12.40;;;7.25;;
28003;SDS011;15330;51.234;6.754;2023-06-10T10:43:59;8.20;;;7.00;;
28003;SDS011;15330;51.234;6.754;2023-06-10T10:46:25;9.15;;;7.45;;
28003;SDS011;15330;51.234;6.754;2023-06-10T10:48:54;8.25;;;7.03;;
28003;SDS011;15330;51.234;6.754;2023-06-10T10:51:22;13.05;;;7.25;;
28003;SDS011;15330;51.234;6.754;2023-06-10T10:54:10;15.20;;;7.53;;
28003;SDS011;15330;51.234;6.754;2023-06-10T10:56:38;10.40;;;7.47;;
28003;SDS011;15330;51.234;6.754;2023-06-10T10:59:03;12.48;;;7.57;;
28003;SDS011;15330;51.234;6.754;2023-06-10T11:01:39;10.32;;;7.35;;
28003;SDS011;15330;51.234;6.754;2023-06-10T11:04:11;11.82;;;7.72;;
28003;SDS011;15330;51.234;6.754;2023-06-10T11:06:37;10.02;;;7.18;;
28003;SDS011;15330;51.234;6.754;2023-06-10T11:09:25;10.43;;;7.97;;
28003;SDS011;15330;51.234;6.754;2023-06-10T11:11:52;10.38;;;7.60;;
28003;SDS011;15330;51.234;6.754;2023-06-10T11:14:30;9.70;;;7.35;;
28003;SDS011;15330;51.234;6.754;2023-06-10T11:16:58;8.70;;;7.80;;
28003;SDS011;15330;51.234;6.754;2023-06-10T11:19:34;8.57;;;7.72;;
28003;SDS011;15330;51.234;6.754;2023-06-10T11:22:01;8.20;;;6.60;;
28003;SDS011;15330;51.234;6.754;2023-06-10T11:24:31;14.57;;;7.45;;
28003;SDS011;15330;51.234;6.754;2023-06-10T11:29:54;9.65;;;7.38;;
28003;SDS011;15330;51.234;6.754;2023-06-10T11:32:32;15.23;;;7.32;;
28003;SDS011;15330;51.234;6.754;2023-06-10T11:35:00;10.13;;;6.85;;
28003;SDS011;15330;51.234;6.754;2023-06-10T11:37:28;10.40;;;7.47;;
28003;SDS011;15330;51.234;6.754;2023-06-10T11:39:54;10.60;;;7.38;;
28003;SDS011;15330;51.234;6.754;2023-06-10T11:42:23;9.10;;;6.80;;
28003;SDS011;15330;51.234;6.754;2023-06-10T11:44:49;7.70;;;6.97;;
28003;SDS011;15330;51.234;6.754;2023-06-10T11:47:16;10.15;;;7.22;;
28003;SDS011;15330;51.234;6.754;2023-06-10T11:49:42;10.95;;;7.53;;
28003;SDS011;15330;51.234;6.754;2023-06-10T11:52:07;11.70;;;7.55;;
28003;SDS011;15330;51.234;6.754;2023-06-10T11:54:33;10.60;;;7.47;;
28003;SDS011;15330;51.234;6.754;2023-06-10T11:56:58;9.02;;;7.55;;
28003;SDS011;15330;51.234;6.754;2023-06-10T11:59:26;14.10;;;7.18;;
28003;SDS011;15330;51.234;6.754;2023-06-10T12:01:52;11.93;;;7.95;;
28003;SDS011;15330;51.234;6.754;2023-06-10T12:04:17;9.15;;;7.20;;
28003;SDS011;15330;51.234;6.754;2023-06-10T12:06:47;12.15;;;7.25;;
28003;SDS011;15330;51.234;6.754;2023-06-10T12:09:20;9.63;;;7.45;;
28003;SDS011;15330;51.234;6.754;2023-06-10T12:11:45;7.75;;;7.03;;
28003;SDS011;15330;51.234;6.754;2023-06-10T12:14:14;15.48;;;8.18;;
28003;SDS011;15330;51.234;6.754;2023-06-10T12:16:40;14.57;;;7.95;;
28003;SDS011;15330;51.234;6.754;2023-06-10T12:19:05;12.27;;;7.72;;
28003;SDS011;15330;51.234;6.754;2023-06-10T12:21:33;10.27;;;7.68;;
28003;SDS011;15330;51.234;6.754;2023-06-10T12:24:01;12.60;;;8.20;;
28003;SDS011;15330;51.234;6.754;2023-06-10T12:31:53;10.68;;;7.82;;
28003;SDS011;15330;51.234;6.754;2023-06-10T12:34:33;11.90;;;7.75;;
28003;SDS011;15330;51.234;6.754;2023-06-10T12:36:59;9.82;;;7.78;;
28003;SDS011;15330;51.234;6.754;2023-06-10T12:39:29;11.35;;;8.27;;
28003;SDS011;15330;51.234;6.754;2023-06-10T12:41:55;11.15;;;7.75;;
28003;SDS011;15330;51.234;6.754;2023-06-10T12:44:33;10.50;;;7.40;;
28003;SDS011;15330;51.234;6.754;2023-06-10T12:46:59;10.75;;;7.90;;
28003;SDS011;15330;51.234;6.754;2023-06-10T12:49:26;16.77;;;14.88;;
28003;SDS011;15330;51.234;6.754;2023-06-10T12:51:52;9.52;;;8.57;;
28003;SDS011;15330;51.234;6.754;2023-06-10T12:54:18;10.57;;;8.10;;
28003;SDS011;15330;51.234;6.754;2023-06-10T12:56:44;9.88;;;8.68;;
28003;SDS011;15330;51.234;6.754;2023-06-10T12:59:09;11.55;;;8.15;;
28003;SDS011;15330;51.234;6.754;2023-06-10T13:01:36;11.05;;;7.90;;
28003;SDS011;15330;51.234;6.754;2023-06-10T13:04:04;10.40;;;7.93;;
28003;SDS011;15330;51.234;6.754;2023-06-10T13:06:31;12.20;;;8.55;;
28003;SDS011;15330;51.234;6.754;2023-06-10T13:08:58;16.63;;;8.07;;
28003;SDS011;15330;51.234;6.754;2023-06-10T13:11:23;11.10;;;7.93;;
28003;SDS011;15330;51.234;6.754;2023-06-10T13:13:50;8.73;;;7.88;;
28003;SDS011;15330;51.234;6.754;2023-06-10T13:16:16;10.07;;;8.07;;
28003;SDS011;15330;51.234;6.754;2023-06-10T13:18:42;8.80;;;7.90;;
28003;SDS011;15330;51.234;6.754;2023-06-10T13:21:07;10.13;;;7.70;;
28003;SDS011;15330;51.234;6.754;2023-06-10T13:23:33;11.32;;;7.63;;
28003;SDS011;15330;51.234;6.754;2023-06-10T13:25:58;8.98;;;7.72;;
28003;SDS011;15330;51.234;6.754;2023-06-10T13:28:24;8.02;;;7.18;;
28003;SDS011;15330;51.234;6.754;2023-06-10T13:30:50;12.13;;;9.65;;
28003;SDS011;15330;51.234;6.754;2023-06-10T13:33:16;23.38;;;19.77;;
28003;SDS011;15330;51.234;6.754;2023-06-10T13:35:41;10.35;;;7.60;;
28003;SDS011;15330;51.234;6.754;2023-06-10T13:38:06;9.82;;;7.60;;
28003;SDS011;15330;51.234;6.754;2023-06-10T13:40:32;8.57;;;7.63;;
28003;SDS011;15330;51.234;6.754;2023-06-10T13:42:57;10.82;;;7.82;;
28003;SDS011;15330;51.234;6.754;2023-06-10T13:45:23;8.88;;;7.47;;
28003;SDS011;15330;51.234;6.754;2023-06-10T13:47:49;12.57;;;7.88;;
28003;SDS011;15330;51.234;6.754;2023-06-10T13:50:15;10.63;;;7.80;;
28003;SDS011;15330;51.234;6.754;2023-06-10T13:52:40;12.68;;;8.05;;
28003;SDS011;15330;51.234;6.754;2023-06-10T13:55:05;9.13;;;7.70;;
28003;SDS011;15330;51.234;6.754;2023-06-10T13:57:31;9.05;;;8.15;;
28003;SDS011;15330;51.234;6.754;2023-06-10T13:59:56;10.32;;;7.68;;
28003;SDS011;15330;51.234;6.754;2023-06-10T14:02:22;11.63;;;8.57;;
28003;SDS011;15330;51.234;6.754;2023-06-10T14:04:47;12.05;;;8.18;;
28003;SDS011;15330;51.234;6.754;2023-06-10T14:07:13;10.70;;;7.30;;
28003;SDS011;15330;51.234;6.754;2023-06-10T14:09:38;10.45;;;7.90;;
28003;SDS011;15330;51.234;6.754;2023-06-10T14:12:03;10.63;;;7.57;;
28003;SDS011;15330;51.234;6.754;2023-06-10T14:14:29;14.52;;;8.27;;
28003;SDS011;15330;51.234;6.754;2023-06-10T14:16:56;14.80;;;7.70;;
28003;SDS011;15330;51.234;6.754;2023-06-10T14:19:21;13.75;;;7.90;;
28003;SDS011;15330;51.234;6.754;2023-06-10T14:21:47;9.85;;;8.07;;
28003;SDS011;15330;51.234;6.754;2023-06-10T14:24:14;10.43;;;7.60;;
28003;SDS011;15330;51.234;6.754;2023-06-10T14:26:39;9.55;;;7.90;;
28003;SDS011;15330;51.234;6.754;2023-06-10T14:29:05;15.68;;;8.68;;
28003;SDS011;15330;51.234;6.754;2023-06-10T14:31:30;11.77;;;8.07;;
28003;SDS011;15330;51.234;6.754;2023-06-10T14:33:55;14.90;;;8.05;;
28003;SDS011;15330;51.234;6.754;2023-06-10T14:36:21;11.05;;;8.32;;
28003;SDS011;15330;51.234;6.754;2023-06-10T14:38:46;9.63;;;8.50;;
28003;SDS011;15330;51.234;6.754;2023-06-10T14:41:12;8.50;;;7.20;;
28003;SDS011;15330;51.234;6.754;2023-06-10T14:43:37;9.02;;;7.95;;
28003;SDS011;15330;51.234;6.754;2023-06-10T14:46:03;10.47;;;7.47;;
28003;SDS011;15330;51.234;6.754;2023-06-10T14:48:28;10.57;;;7.10;;